sensor_id;sensor_type;location;lat;lon;timestamp;temperature;humidity
79016;DHT22;72726;44.842;37.556;2023-12-20T00:00:39;10.76;80.38
79016;DHT22;72726;44.842;37.556;2023-12-20T00:01:40;10.76;80.39
79016;DHT22;72726;44.842;37.556;2023-12-20T00:02:41;10.78;80.53
79016;DHT22;72726;44.842;37.556;2023-12-20T00:03:47;10.74;80.78
79016;DHT22;72726;44.842;37.556;2023-12-20T00:04:49;10.80;80.99
79016;DHT22;72726;44.842;37.556;2023-12-20T00:05:51;10.80;81.17
79016;DHT22;72726;44.842;37.556;2023-12-20T00:06:52;10.77;81.26
79016;DHT22;72726;44.842;37.556;2023-12-20T00:07:53;10.78;81.25
79016;DHT22;72726;44.842;37.556;2023-12-20T00:08:55;10.81;81.21
79016;DHT22;72726;44.842;37.556;2023-12-20T00:09:56;10.80;81.03
79016;DHT22;72726;44.842;37.556;2023-12-20T00:10:58;10.81;81.06
79016;DHT22;72726;44.842;37.556;2023-12-20T00:11:59;10.80;81.05
79016;DHT22;72726;44.842;37.556;2023-12-20T00:13:00;10.80;80.94
79016;DHT22;72726;44.842;37.556;2023-12-20T00:14:02;10.80;80.83
79016;DHT22;72726;44.842;37.556;2023-12-20T00:15:03;10.83;80.77
79016;DHT22;72726;44.842;37.556;2023-12-20T00:16:05;10.83;80.90
79016;DHT22;72726;44.842;37.556;2023-12-20T00:17:06;10.83;81.05
79016;DHT22;72726;44.842;37.556;2023-12-20T00:18:08;10.81;81.21
79016;DHT22;72726;44.842;37.556;2023-12-20T00:19:10;10.80;81.39
79016;DHT22;72726;44.842;37.556;2023-12-20T00:20:12;10.84;81.42
79016;DHT22;72726;44.842;37.556;2023-12-20T00:21:13;10.81;81.48
79016;DHT22;72726;44.842;37.556;2023-12-20T00:22:15;10.81;81.65
79016;DHT22;72726;44.842;37.556;2023-12-20T00:23:16;10.81;81.76
79016;DHT22;72726;44.842;37.556;2023-12-20T00:24:18;10.78;81.85
79016;DHT22;72726;44.842;37.556;2023-12-20T00:25:19;10.78;81.85
79016;DHT22;72726;44.842;37.556;2023-12-20T00:26:20;10.78;81.73
79016;DHT22;72726;44.842;37.556;2023-12-20T00:27:22;10.77;81.78
79016;DHT22;72726;44.842;37.556;2023-12-20T00:28:24;10.76;81.73
79016;DHT22;72726;44.842;37.556;2023-12-20T00:29:26;10.77;81.80
79016;DHT22;72726;44.842;37.556;2023-12-20T00:30:28;10.78;81.90
79016;DHT22;72726;44.842;37.556;2023-12-20T00:31:29;10.76;82.02
79016;DHT22;72726;44.842;37.556;2023-12-20T00:32:30;10.74;81.94
79016;DHT22;72726;44.842;37.556;2023-12-20T00:33:32;10.74;81.90
79016;DHT22;72726;44.842;37.556;2023-12-20T00:34:33;10.76;81.93
79016;DHT22;72726;44.842;37.556;2023-12-20T00:35:34;10.76;82.03
79016;DHT22;72726;44.842;37.556;2023-12-20T00:36:36;10.76;81.93
79016;DHT22;72726;44.842;37.556;2023-12-20T00:37:38;10.80;81.90
79016;DHT22;72726;44.842;37.556;2023-12-20T00:38:39;10.76;81.75
79016;DHT22;72726;44.842;37.556;2023-12-20T00:39:41;10.76;81.86
79016;DHT22;72726;44.842;37.556;2023-12-20T00:40:42;10.76;82.03
79016;DHT22;72726;44.842;37.556;2023-12-20T00:41:44;10.74;82.22
79016;DHT22;72726;44.842;37.556;2023-12-20T00:42:45;10.73;82.38
79016;DHT22;72726;44.842;37.556;2023-12-20T00:43:47;10.70;82.60
79016;DHT22;72726;44.842;37.556;2023-12-20T00:44:50;10.70;82.64
79016;DHT22;72726;44.842;37.556;2023-12-20T00:45:51;10.66;82.78
79016;DHT22;72726;44.842;37.556;2023-12-20T00:46:53;10.66;82.69
79016;DHT22;72726;44.842;37.556;2023-12-20T00:47:55;10.66;82.96
79016;DHT22;72726;44.842;37.556;2023-12-20T00:48:56;10.60;83.11
79016;DHT22;72726;44.842;37.556;2023-12-20T00:49:58;10.61;83.06
79016;DHT22;72726;44.842;37.556;2023-12-20T00:50:59;10.60;83.04
79016;DHT22;72726;44.842;37.556;2023-12-20T00:52:01;10.60;82.89
79016;DHT22;72726;44.842;37.556;2023-12-20T00:53:03;10.61;82.52
79016;DHT22;72726;44.842;37.556;2023-12-20T00:54:04;10.61;82.58
79016;DHT22;72726;44.842;37.556;2023-12-20T00:55:06;10.59;82.56
79016;DHT22;72726;44.842;37.556;2023-12-20T00:56:08;10.60;82.83
79016;DHT22;72726;44.842;37.556;2023-12-20T00:57:09;10.63;82.96
79016;DHT22;72726;44.842;37.556;2023-12-20T00:58:11;10.60;82.64
79016;DHT22;72726;44.842;37.556;2023-12-20T00:59:12;10.61;82.69
79016;DHT22;72726;44.842;37.556;2023-12-20T01:00:14;10.60;82.68
79016;DHT22;72726;44.842;37.556;2023-12-20T01:01:15;10.59;82.61
79016;DHT22;72726;44.842;37.556;2023-12-20T01:02:16;10.61;82.70
79016;DHT22;72726;44.842;37.556;2023-12-20T01:03:18;10.60;82.65
79016;DHT22;72726;44.842;37.556;2023-12-20T01:04:20;10.61;82.66
79016;DHT22;72726;44.842;37.556;2023-12-20T01:05:21;10.59;82.83
79016;DHT22;72726;44.842;37.556;2023-12-20T01:06:24;10.60;82.80
79016;DHT22;72726;44.842;37.556;2023-12-20T01:07:25;10.61;82.76
79016;DHT22;72726;44.842;37.556;2023-12-20T01:08:27;10.57;82.78
79016;DHT22;72726;44.842;37.556;2023-12-20T01:09:28;10.60;82.85
79016;DHT22;72726;44.842;37.556;2023-12-20T01:10:31;10.61;82.74
79016;DHT22;72726;44.842;37.556;2023-12-20T01:11:33;10.60;82.79
79016;DHT22;72726;44.842;37.556;2023-12-20T01:12:36;10.63;82.79
79016;DHT22;72726;44.842;37.556;2023-12-20T01:13:37;10.64;82.74
79016;DHT22;72726;44.842;37.556;2023-12-20T01:14:39;10.63;82.67
79016;DHT22;72726;44.842;37.556;2023-12-20T01:15:40;10.63;82.53
79016;DHT22;72726;44.842;37.556;2023-12-20T01:16:42;10.64;82.35
79016;DHT22;72726;44.842;37.556;2023-12-20T01:17:44;10.63;82.27
79016;DHT22;72726;44.842;37.556;2023-12-20T01:18:45;10.64;82.13
79016;DHT22;72726;44.842;37.556;2023-12-20T01:19:46;10.63;82.08
79016;DHT22;72726;44.842;37.556;2023-12-20T01:20:48;10.63;82.14
79016;DHT22;72726;44.842;37.556;2023-12-20T01:21:49;10.61;82.13
79016;DHT22;72726;44.842;37.556;2023-12-20T01:22:51;10.63;82.13
79016;DHT22;72726;44.842;37.556;2023-12-20T01:23:52;10.64;82.17
79016;DHT22;72726;44.842;37.556;2023-12-20T01:24:54;10.63;82.36
79016;DHT22;72726;44.842;37.556;2023-12-20T01:25:55;10.61;82.13
79016;DHT22;72726;44.842;37.556;2023-12-20T01:26:57;10.61;81.68
79016;DHT22;72726;44.842;37.556;2023-12-20T01:27:59;10.61;81.86
79016;DHT22;72726;44.842;37.556;2023-12-20T01:29:00;10.61;81.55
79016;DHT22;72726;44.842;37.556;2023-12-20T01:30:02;10.61;81.67
79016;DHT22;72726;44.842;37.556;2023-12-20T01:31:03;10.64;81.60
79016;DHT22;72726;44.842;37.556;2023-12-20T01:32:05;10.63;81.44
79016;DHT22;72726;44.842;37.556;2023-12-20T01:33:07;10.63;81.41
79016;DHT22;72726;44.842;37.556;2023-12-20T01:34:08;10.61;81.57
79016;DHT22;72726;44.842;37.556;2023-12-20T01:35:09;10.60;81.38
79016;DHT22;72726;44.842;37.556;2023-12-20T01:36:11;10.61;81.19
79016;DHT22;72726;44.842;37.556;2023-12-20T01:37:12;10.63;81.21
79016;DHT22;72726;44.842;37.556;2023-12-20T01:38:14;10.61;80.84
79016;DHT22;72726;44.842;37.556;2023-12-20T01:39:17;10.63;80.84
79016;DHT22;72726;44.842;37.556;2023-12-20T01:40:19;10.61;80.79
79016;DHT22;72726;44.842;37.556;2023-12-20T01:41:20;10.63;80.78
79016;DHT22;72726;44.842;37.556;2023-12-20T01:42:21;10.64;80.87
79016;DHT22;72726;44.842;37.556;2023-12-20T01:43:23;10.61;80.96
79016;DHT22;72726;44.842;37.556;2023-12-20T01:44:24;10.66;80.64
79016;DHT22;72726;44.842;37.556;2023-12-20T01:45:26;10.66;80.57
79016;DHT22;72726;44.842;37.556;2023-12-20T01:46:27;10.68;80.57
79016;DHT22;72726;44.842;37.556;2023-12-20T01:47:28;10.68;80.69
79016;DHT22;72726;44.842;37.556;2023-12-20T01:48:30;10.67;80.77
79016;DHT22;72726;44.842;37.556;2023-12-20T01:49:33;10.67;80.78
79016;DHT22;72726;44.842;37.556;2023-12-20T01:50:36;10.70;80.78
79016;DHT22;72726;44.842;37.556;2023-12-20T01:51:39;10.70;80.82
79016;DHT22;72726;44.842;37.556;2023-12-20T01:52:42;10.71;80.92
79016;DHT22;72726;44.842;37.556;2023-12-20T01:53:45;10.74;80.91
79016;DHT22;72726;44.842;37.556;2023-12-20T01:54:47;10.74;80.78
79016;DHT22;72726;44.842;37.556;2023-12-20T01:55:50;10.76;80.81
79016;DHT22;72726;44.842;37.556;2023-12-20T01:56:51;10.76;80.91
79016;DHT22;72726;44.842;37.556;2023-12-20T01:57:53;10.77;80.99
79016;DHT22;72726;44.842;37.556;2023-12-20T01:58:56;10.78;80.97
79016;DHT22;72726;44.842;37.556;2023-12-20T01:59:58;10.77;81.02
79016;DHT22;72726;44.842;37.556;2023-12-20T02:00:59;10.76;81.08
79016;DHT22;72726;44.842;37.556;2023-12-20T02:02:01;10.77;81.17
79016;DHT22;72726;44.842;37.556;2023-12-20T02:03:08;10.78;81.25
79016;DHT22;72726;44.842;37.556;2023-12-20T02:04:09;10.78;80.82
79016;DHT22;72726;44.842;37.556;2023-12-20T02:05:11;10.74;80.97
79016;DHT22;72726;44.842;37.556;2023-12-20T02:06:13;10.78;80.96
79016;DHT22;72726;44.842;37.556;2023-12-20T02:07:15;10.80;80.78
79016;DHT22;72726;44.842;37.556;2023-12-20T02:08:17;10.77;80.60
79016;DHT22;72726;44.842;37.556;2023-12-20T02:09:19;10.81;80.68
79016;DHT22;72726;44.842;37.556;2023-12-20T02:10:20;10.80;80.45
79016;DHT22;72726;44.842;37.556;2023-12-20T02:11:22;10.81;80.58
79016;DHT22;72726;44.842;37.556;2023-12-20T02:12:23;10.78;80.45
79016;DHT22;72726;44.842;37.556;2023-12-20T02:13:25;10.77;80.30
79016;DHT22;72726;44.842;37.556;2023-12-20T02:14:27;10.77;80.33
79016;DHT22;72726;44.842;37.556;2023-12-20T02:15:29;10.76;80.39
79016;DHT22;72726;44.842;37.556;2023-12-20T02:16:30;10.78;80.52
79016;DHT22;72726;44.842;37.556;2023-12-20T02:17:32;10.78;80.63
79016;DHT22;72726;44.842;37.556;2023-12-20T02:18:35;10.80;80.49
79016;DHT22;72726;44.842;37.556;2023-12-20T02:19:36;10.80;80.29
79016;DHT22;72726;44.842;37.556;2023-12-20T02:20:38;10.81;79.74
79016;DHT22;72726;44.842;37.556;2023-12-20T02:21:39;10.81;79.64
79016;DHT22;72726;44.842;37.556;2023-12-20T02:22:41;10.81;79.74
79016;DHT22;72726;44.842;37.556;2023-12-20T02:23:42;10.83;79.67
79016;DHT22;72726;44.842;37.556;2023-12-20T02:24:44;10.83;79.66
79016;DHT22;72726;44.842;37.556;2023-12-20T02:25:45;10.81;79.67
79016;DHT22;72726;44.842;37.556;2023-12-20T02:26:47;10.81;79.45
79016;DHT22;72726;44.842;37.556;2023-12-20T02:27:49;10.81;79.40
79016;DHT22;72726;44.842;37.556;2023-12-20T02:28:51;10.83;79.55
79016;DHT22;72726;44.842;37.556;2023-12-20T02:29:52;10.81;79.63
79016;DHT22;72726;44.842;37.556;2023-12-20T02:30:53;10.84;79.75
79016;DHT22;72726;44.842;37.556;2023-12-20T02:31:55;10.83;79.90
79016;DHT22;72726;44.842;37.556;2023-12-20T02:32:56;10.81;79.91
79016;DHT22;72726;44.842;37.556;2023-12-20T02:33:59;10.83;79.96
79016;DHT22;72726;44.842;37.556;2023-12-20T02:35:00;10.83;80.11
79016;DHT22;72726;44.842;37.556;2023-12-20T02:36:02;10.85;80.46
79016;DHT22;72726;44.842;37.556;2023-12-20T02:37:03;10.81;80.39
79016;DHT22;72726;44.842;37.556;2023-12-20T02:38:05;10.80;80.37
79016;DHT22;72726;44.842;37.556;2023-12-20T02:39:06;10.76;80.65
79016;DHT22;72726;44.842;37.556;2023-12-20T02:40:08;10.76;80.75
79016;DHT22;72726;44.842;37.556;2023-12-20T02:41:09;10.74;80.99
79016;DHT22;72726;44.842;37.556;2023-12-20T02:42:10;10.73;81.12
79016;DHT22;72726;44.842;37.556;2023-12-20T02:43:12;10.73;81.25
79016;DHT22;72726;44.842;37.556;2023-12-20T02:44:13;10.73;81.44
79016;DHT22;72726;44.842;37.556;2023-12-20T02:45:15;10.71;81.48
79016;DHT22;72726;44.842;37.556;2023-12-20T02:46:17;10.70;81.44
79016;DHT22;72726;44.842;37.556;2023-12-20T02:47:19;10.71;81.40
79016;DHT22;72726;44.842;37.556;2023-12-20T02:48:20;10.71;81.26
79016;DHT22;72726;44.842;37.556;2023-12-20T02:49:22;10.68;81.31
79016;DHT22;72726;44.842;37.556;2023-12-20T02:50:23;10.71;81.31
79016;DHT22;72726;44.842;37.556;2023-12-20T02:51:25;10.68;81.41
79016;DHT22;72726;44.842;37.556;2023-12-20T02:52:27;10.67;81.50
79016;DHT22;72726;44.842;37.556;2023-12-20T02:53:29;10.70;81.45
79016;DHT22;72726;44.842;37.556;2023-12-20T02:54:30;10.68;81.50
79016;DHT22;72726;44.842;37.556;2023-12-20T02:55:32;10.71;81.45
79016;DHT22;72726;44.842;37.556;2023-12-20T02:56:33;10.71;81.32
79016;DHT22;72726;44.842;37.556;2023-12-20T02:57:34;10.70;81.54
79016;DHT22;72726;44.842;37.556;2023-12-20T02:58:37;10.67;81.48
79016;DHT22;72726;44.842;37.556;2023-12-20T02:59:38;10.70;81.45
79016;DHT22;72726;44.842;37.556;2023-12-20T03:00:40;10.70;81.28
79016;DHT22;72726;44.842;37.556;2023-12-20T03:01:43;10.71;81.17
79016;DHT22;72726;44.842;37.556;2023-12-20T03:02:44;10.74;80.90
79016;DHT22;72726;44.842;37.556;2023-12-20T03:03:46;10.76;80.67
79016;DHT22;72726;44.842;37.556;2023-12-20T03:04:47;10.76;80.54
79016;DHT22;72726;44.842;37.556;2023-12-20T03:05:49;10.76;80.40
79016;DHT22;72726;44.842;37.556;2023-12-20T03:06:50;10.76;80.39
79016;DHT22;72726;44.842;37.556;2023-12-20T03:07:51;10.77;80.41
79016;DHT22;72726;44.842;37.556;2023-12-20T03:08:53;10.77;80.51
79016;DHT22;72726;44.842;37.556;2023-12-20T03:09:54;10.80;80.48
79016;DHT22;72726;44.842;37.556;2023-12-20T03:10:56;10.77;80.36
79016;DHT22;72726;44.842;37.556;2023-12-20T03:11:57;10.78;80.40
79016;DHT22;72726;44.842;37.556;2023-12-20T03:12:58;10.78;80.56
79016;DHT22;72726;44.842;37.556;2023-12-20T03:14:00;10.76;80.52
79016;DHT22;72726;44.842;37.556;2023-12-20T03:15:02;10.80;80.39
79016;DHT22;72726;44.842;37.556;2023-12-20T03:16:10;10.80;80.25
79016;DHT22;72726;44.842;37.556;2023-12-20T03:17:11;10.80;79.72
79016;DHT22;72726;44.842;37.556;2023-12-20T03:18:13;10.77;79.87
79016;DHT22;72726;44.842;37.556;2023-12-20T03:19:15;10.77;79.63
79016;DHT22;72726;44.842;37.556;2023-12-20T03:20:17;10.81;79.47
79016;DHT22;72726;44.842;37.556;2023-12-20T03:21:18;10.78;79.42
79016;DHT22;72726;44.842;37.556;2023-12-20T03:22:20;10.80;79.20
79016;DHT22;72726;44.842;37.556;2023-12-20T03:23:21;10.78;79.10
79016;DHT22;72726;44.842;37.556;2023-12-20T03:24:22;10.80;78.94
79016;DHT22;72726;44.842;37.556;2023-12-20T03:25:24;10.81;79.03
79016;DHT22;72726;44.842;37.556;2023-12-20T03:26:25;10.80;78.89
79016;DHT22;72726;44.842;37.556;2023-12-20T03:27:26;10.81;78.62
79016;DHT22;72726;44.842;37.556;2023-12-20T03:28:29;10.80;78.49
79016;DHT22;72726;44.842;37.556;2023-12-20T03:29:31;10.83;78.63
79016;DHT22;72726;44.842;37.556;2023-12-20T03:30:32;10.83;78.79
79016;DHT22;72726;44.842;37.556;2023-12-20T03:31:33;10.83;78.73
79016;DHT22;72726;44.842;37.556;2023-12-20T03:32:35;10.83;78.69
79016;DHT22;72726;44.842;37.556;2023-12-20T03:33:36;10.84;78.88
79016;DHT22;72726;44.842;37.556;2023-12-20T03:34:37;10.87;78.89
79016;DHT22;72726;44.842;37.556;2023-12-20T03:35:39;10.87;79.10
79016;DHT22;72726;44.842;37.556;2023-12-20T03:36:40;10.85;78.86
79016;DHT22;72726;44.842;37.556;2023-12-20T03:37:42;10.87;79.00
79016;DHT22;72726;44.842;37.556;2023-12-20T03:38:43;10.87;79.19
79016;DHT22;72726;44.842;37.556;2023-12-20T03:39:44;10.87;79.18
79016;DHT22;72726;44.842;37.556;2023-12-20T03:40:46;10.90;79.08
79016;DHT22;72726;44.842;37.556;2023-12-20T03:41:47;10.90;79.19
79016;DHT22;72726;44.842;37.556;2023-12-20T03:42:49;10.90;78.88
79016;DHT22;72726;44.842;37.556;2023-12-20T03:43:50;10.90;78.76
79016;DHT22;72726;44.842;37.556;2023-12-20T03:44:52;10.90;78.56
79016;DHT22;72726;44.842;37.556;2023-12-20T03:45:53;10.91;78.63
79016;DHT22;72726;44.842;37.556;2023-12-20T03:46:55;10.93;78.83
79016;DHT22;72726;44.842;37.556;2023-12-20T03:47:56;10.94;78.73
79016;DHT22;72726;44.842;37.556;2023-12-20T03:48:58;10.94;78.67
79016;DHT22;72726;44.842;37.556;2023-12-20T03:49:59;10.93;78.68
79016;DHT22;72726;44.842;37.556;2023-12-20T03:51:01;10.93;78.73
79016;DHT22;72726;44.842;37.556;2023-12-20T03:52:03;10.91;78.69
79016;DHT22;72726;44.842;37.556;2023-12-20T03:53:04;10.94;78.55
79016;DHT22;72726;44.842;37.556;2023-12-20T03:54:05;10.95;78.08
79016;DHT22;72726;44.842;37.556;2023-12-20T03:55:07;10.94;77.93
79016;DHT22;72726;44.842;37.556;2023-12-20T03:56:08;10.95;77.93
79016;DHT22;72726;44.842;37.556;2023-12-20T03:57:10;10.94;78.24
79016;DHT22;72726;44.842;37.556;2023-12-20T03:58:11;10.94;78.29
79016;DHT22;72726;44.842;37.556;2023-12-20T03:59:12;10.95;78.30
79016;DHT22;72726;44.842;37.556;2023-12-20T04:00:14;10.95;78.13
79016;DHT22;72726;44.842;37.556;2023-12-20T04:01:15;10.95;78.14
79016;DHT22;72726;44.842;37.556;2023-12-20T04:02:17;10.97;78.24
79016;DHT22;72726;44.842;37.556;2023-12-20T04:03:19;10.94;78.39
79016;DHT22;72726;44.842;37.556;2023-12-20T04:04:20;10.94;78.49
79016;DHT22;72726;44.842;37.556;2023-12-20T04:05:21;10.97;78.46
79016;DHT22;72726;44.842;37.556;2023-12-20T04:06:23;10.97;78.84
79016;DHT22;72726;44.842;37.556;2023-12-20T04:07:24;10.98;78.85
79016;DHT22;72726;44.842;37.556;2023-12-20T04:08:26;11.01;79.02
79016;DHT22;72726;44.842;37.556;2023-12-20T04:09:27;10.97;79.12
79016;DHT22;72726;44.842;37.556;2023-12-20T04:10:28;11.00;79.32
79016;DHT22;72726;44.842;37.556;2023-12-20T04:11:30;10.97;79.41
79016;DHT22;72726;44.842;37.556;2023-12-20T04:12:32;10.98;79.38
79016;DHT22;72726;44.842;37.556;2023-12-20T04:13:34;11.00;79.80
79016;DHT22;72726;44.842;37.556;2023-12-20T04:14:35;10.97;80.10
79016;DHT22;72726;44.842;37.556;2023-12-20T04:15:36;10.98;80.14
79016;DHT22;72726;44.842;37.556;2023-12-20T04:16:38;10.98;80.26
79016;DHT22;72726;44.842;37.556;2023-12-20T04:17:40;10.95;80.14
79016;DHT22;72726;44.842;37.556;2023-12-20T04:18:41;10.94;80.30
79016;DHT22;72726;44.842;37.556;2023-12-20T04:19:43;10.94;80.62
79016;DHT22;72726;44.842;37.556;2023-12-20T04:20:44;10.91;80.66
79016;DHT22;72726;44.842;37.556;2023-12-20T04:21:46;10.90;80.59
79016;DHT22;72726;44.842;37.556;2023-12-20T04:22:48;10.90;80.54
79016;DHT22;72726;44.842;37.556;2023-12-20T04:23:49;10.88;80.70
79016;DHT22;72726;44.842;37.556;2023-12-20T04:24:50;10.87;80.78
79016;DHT22;72726;44.842;37.556;2023-12-20T04:25:52;10.85;80.24
79016;DHT22;72726;44.842;37.556;2023-12-20T04:26:53;10.85;80.43
79016;DHT22;72726;44.842;37.556;2023-12-20T04:27:55;10.87;80.16
79016;DHT22;72726;44.842;37.556;2023-12-20T04:28:56;10.87;79.85
79016;DHT22;72726;44.842;37.556;2023-12-20T04:29:59;10.85;79.83
79016;DHT22;72726;44.842;37.556;2023-12-20T04:31:01;10.85;79.21
79016;DHT22;72726;44.842;37.556;2023-12-20T04:32:02;10.85;78.98
79016;DHT22;72726;44.842;37.556;2023-12-20T04:33:04;10.84;78.92
79016;DHT22;72726;44.842;37.556;2023-12-20T04:34:05;10.81;78.88
79016;DHT22;72726;44.842;37.556;2023-12-20T04:35:07;10.83;79.11
79016;DHT22;72726;44.842;37.556;2023-12-20T04:36:09;10.83;78.64
79016;DHT22;72726;44.842;37.556;2023-12-20T04:37:11;10.80;78.58
79016;DHT22;72726;44.842;37.556;2023-12-20T04:38:13;10.83;78.53
79016;DHT22;72726;44.842;37.556;2023-12-20T04:39:15;10.83;78.79
79016;DHT22;72726;44.842;37.556;2023-12-20T04:40:17;10.81;78.19
79016;DHT22;72726;44.842;37.556;2023-12-20T04:41:18;10.80;77.90
79016;DHT22;72726;44.842;37.556;2023-12-20T04:42:20;10.78;78.01
79016;DHT22;72726;44.842;37.556;2023-12-20T04:43:21;10.80;77.88
79016;DHT22;72726;44.842;37.556;2023-12-20T04:44:22;10.81;77.95
79016;DHT22;72726;44.842;37.556;2023-12-20T04:45:24;10.81;77.97
79016;DHT22;72726;44.842;37.556;2023-12-20T04:46:26;10.81;78.12
79016;DHT22;72726;44.842;37.556;2023-12-20T04:47:27;10.81;78.33
79016;DHT22;72726;44.842;37.556;2023-12-20T04:48:29;10.80;78.47
79016;DHT22;72726;44.842;37.556;2023-12-20T04:49:30;10.83;78.11
79016;DHT22;72726;44.842;37.556;2023-12-20T04:50:31;10.80;78.09
79016;DHT22;72726;44.842;37.556;2023-12-20T04:51:34;10.80;77.87
79016;DHT22;72726;44.842;37.556;2023-12-20T04:52:36;10.80;77.99
79016;DHT22;72726;44.842;37.556;2023-12-20T04:53:37;10.78;77.89
79016;DHT22;72726;44.842;37.556;2023-12-20T04:54:38;10.80;77.71
79016;DHT22;72726;44.842;37.556;2023-12-20T04:55:39;10.78;77.56
79016;DHT22;72726;44.842;37.556;2023-12-20T04:56:41;10.78;77.20
79016;DHT22;72726;44.842;37.556;2023-12-20T04:57:42;10.80;77.34
79016;DHT22;72726;44.842;37.556;2023-12-20T04:58:44;10.80;77.20
79016;DHT22;72726;44.842;37.556;2023-12-20T04:59:45;10.77;77.12
79016;DHT22;72726;44.842;37.556;2023-12-20T05:00:46;10.76;77.33
79016;DHT22;72726;44.842;37.556;2023-12-20T05:01:48;10.73;77.16
79016;DHT22;72726;44.842;37.556;2023-12-20T05:02:49;10.74;77.34
79016;DHT22;72726;44.842;37.556;2023-12-20T05:03:50;10.71;77.56
79016;DHT22;72726;44.842;37.556;2023-12-20T05:04:52;10.71;77.46
79016;DHT22;72726;44.842;37.556;2023-12-20T05:05:54;10.70;77.71
79016;DHT22;72726;44.842;37.556;2023-12-20T05:06:56;10.73;77.69
79016;DHT22;72726;44.842;37.556;2023-12-20T05:07:57;10.70;78.01
79016;DHT22;72726;44.842;37.556;2023-12-20T05:08:58;10.73;78.23
79016;DHT22;72726;44.842;37.556;2023-12-20T05:10:00;10.70;78.18
79016;DHT22;72726;44.842;37.556;2023-12-20T05:11:02;10.70;78.52
79016;DHT22;72726;44.842;37.556;2023-12-20T05:12:03;10.68;78.71
79016;DHT22;72726;44.842;37.556;2023-12-20T05:13:05;10.70;78.94
79016;DHT22;72726;44.842;37.556;2023-12-20T05:14:06;10.71;79.15
79016;DHT22;72726;44.842;37.556;2023-12-20T05:15:08;10.73;79.39
79016;DHT22;72726;44.842;37.556;2023-12-20T05:16:10;10.71;79.40
79016;DHT22;72726;44.842;37.556;2023-12-20T05:17:12;10.76;79.39
79016;DHT22;72726;44.842;37.556;2023-12-20T05:18:13;10.71;79.61
79016;DHT22;72726;44.842;37.556;2023-12-20T05:19:15;10.74;79.70
79016;DHT22;72726;44.842;37.556;2023-12-20T05:20:16;10.76;79.87
79016;DHT22;72726;44.842;37.556;2023-12-20T05:21:18;10.73;79.97
79016;DHT22;72726;44.842;37.556;2023-12-20T05:22:20;10.73;79.87
79016;DHT22;72726;44.842;37.556;2023-12-20T05:23:21;10.73;79.89
79016;DHT22;72726;44.842;37.556;2023-12-20T05:24:23;10.70;79.44
79016;DHT22;72726;44.842;37.556;2023-12-20T05:25:24;10.73;79.56
79016;DHT22;72726;44.842;37.556;2023-12-20T05:26:25;10.70;79.48
79016;DHT22;72726;44.842;37.556;2023-12-20T05:27:27;10.71;79.09
79016;DHT22;72726;44.842;37.556;2023-12-20T05:28:28;10.67;79.07
79016;DHT22;72726;44.842;37.556;2023-12-20T05:29:30;10.68;78.95
79016;DHT22;72726;44.842;37.556;2023-12-20T05:30:31;10.70;78.85
79016;DHT22;72726;44.842;37.556;2023-12-20T05:31:32;10.68;78.38
79016;DHT22;72726;44.842;37.556;2023-12-20T05:32:34;10.68;78.12
79016;DHT22;72726;44.842;37.556;2023-12-20T05:33:36;10.71;78.39
79016;DHT22;72726;44.842;37.556;2023-12-20T05:34:37;10.70;78.46
79016;DHT22;72726;44.842;37.556;2023-12-20T05:35:39;10.70;78.59
79016;DHT22;72726;44.842;37.556;2023-12-20T05:36:40;10.71;78.52
79016;DHT22;72726;44.842;37.556;2023-12-20T05:37:42;10.73;78.46
79016;DHT22;72726;44.842;37.556;2023-12-20T05:38:43;10.76;78.65
79016;DHT22;72726;44.842;37.556;2023-12-20T05:39:44;10.76;78.67
79016;DHT22;72726;44.842;37.556;2023-12-20T05:40:46;10.76;78.91
79016;DHT22;72726;44.842;37.556;2023-12-20T05:41:47;10.76;79.10
79016;DHT22;72726;44.842;37.556;2023-12-20T05:42:49;10.78;79.22
79016;DHT22;72726;44.842;37.556;2023-12-20T05:43:50;10.78;79.25
79016;DHT22;72726;44.842;37.556;2023-12-20T05:44:52;10.83;79.38
79016;DHT22;72726;44.842;37.556;2023-12-20T05:45:53;10.83;79.43
79016;DHT22;72726;44.842;37.556;2023-12-20T05:46:55;10.81;79.64
79016;DHT22;72726;44.842;37.556;2023-12-20T05:47:56;10.84;79.73
79016;DHT22;72726;44.842;37.556;2023-12-20T05:48:58;10.87;79.66
79016;DHT22;72726;44.842;37.556;2023-12-20T05:49:59;10.87;79.03
79016;DHT22;72726;44.842;37.556;2023-12-20T05:51:00;10.87;79.10
79016;DHT22;72726;44.842;37.556;2023-12-20T05:52:02;10.91;79.24
79016;DHT22;72726;44.842;37.556;2023-12-20T05:53:03;10.88;79.17
79016;DHT22;72726;44.842;37.556;2023-12-20T05:54:05;10.90;79.37
79016;DHT22;72726;44.842;37.556;2023-12-20T05:55:06;10.91;79.48
79016;DHT22;72726;44.842;37.556;2023-12-20T05:56:08;10.94;79.61
79016;DHT22;72726;44.842;37.556;2023-12-20T05:57:09;10.91;79.85
79016;DHT22;72726;44.842;37.556;2023-12-20T05:58:11;10.94;79.97
79016;DHT22;72726;44.842;37.556;2023-12-20T05:59:12;10.97;80.04
79016;DHT22;72726;44.842;37.556;2023-12-20T06:00:14;10.97;80.02
79016;DHT22;72726;44.842;37.556;2023-12-20T06:01:16;10.97;79.82
79016;DHT22;72726;44.842;37.556;2023-12-20T06:02:20;10.98;79.61
79016;DHT22;72726;44.842;37.556;2023-12-20T06:03:22;10.97;79.29
79016;DHT22;72726;44.842;37.556;2023-12-20T06:04:24;10.98;79.17
79016;DHT22;72726;44.842;37.556;2023-12-20T06:05:26;11.01;79.18
79016;DHT22;72726;44.842;37.556;2023-12-20T06:06:27;11.01;79.06
79016;DHT22;72726;44.842;37.556;2023-12-20T06:07:29;11.01;78.71
79016;DHT22;72726;44.842;37.556;2023-12-20T06:08:30;11.01;78.63
79016;DHT22;72726;44.842;37.556;2023-12-20T06:09:32;11.00;78.66
79016;DHT22;72726;44.842;37.556;2023-12-20T06:10:33;11.01;78.40
79016;DHT22;72726;44.842;37.556;2023-12-20T06:11:35;10.98;78.30
79016;DHT22;72726;44.842;37.556;2023-12-20T06:12:36;10.98;78.26
79016;DHT22;72726;44.842;37.556;2023-12-20T06:13:38;10.98;78.16
79016;DHT22;72726;44.842;37.556;2023-12-20T06:14:39;10.97;78.36
79016;DHT22;72726;44.842;37.556;2023-12-20T06:15:40;10.97;78.27
79016;DHT22;72726;44.842;37.556;2023-12-20T06:16:42;10.98;78.21
79016;DHT22;72726;44.842;37.556;2023-12-20T06:17:44;10.97;78.11
79016;DHT22;72726;44.842;37.556;2023-12-20T06:18:45;10.98;78.19
79016;DHT22;72726;44.842;37.556;2023-12-20T06:19:47;10.98;78.32
79016;DHT22;72726;44.842;37.556;2023-12-20T06:20:49;10.98;78.32
79016;DHT22;72726;44.842;37.556;2023-12-20T06:21:50;10.98;78.43
79016;DHT22;72726;44.842;37.556;2023-12-20T06:22:52;11.02;78.82